createdAt,value
2019-05-05T00:00:01.319Z,92.10
2019-05-05T00:02:34.154Z,92.30
2019-05-05T00:05:04.927Z,92.10
2019-05-05T00:07:32.197Z,92.20
2019-05-05T00:09:58.835Z,92.20
2019-05-05T00:12:39.196Z,92.40
2019-05-05T00:15:14.632Z,92.40
2019-05-05T00:17:40.969Z,92.50
2019-05-05T00:20:07.393Z,92.60
2019-05-05T00:22:35.027Z,92.70
2019-05-05T00:25:01.324Z,92.80
2019-05-05T00:27:27.504Z,93.00
2019-05-05T00:29:54.724Z,93.10
2019-05-05T00:32:21.106Z,93.10
2019-05-05T00:34:48.453Z,93.20
2019-05-05T00:37:15.198Z,93.30
2019-05-05T00:39:41.770Z,93.40
2019-05-05T00:42:08.158Z,93.60
2019-05-05T00:44:35.207Z,93.60
2019-05-05T00:47:05.266Z,93.70
2019-05-05T00:49:44.102Z,93.80
2019-05-05T00:52:01.779Z,93.90
2019-05-05T00:54:27.970Z,94.00
2019-05-05T00:56:54.547Z,94.00
2019-05-05T00:59:22.574Z,94.10
2019-05-05T01:02:04.496Z,94.10
2019-05-05T01:04:32.483Z,94.00
2019-05-05T01:06:58.713Z,94.10
2019-05-05T01:09:26.691Z,94.10
2019-05-05T01:11:54.927Z,94.10
2019-05-05T01:14:20.999Z,94.10
2019-05-05T01:16:47.141Z,94.20
2019-05-05T01:19:15.000Z,94.00
2019-05-05T01:21:41.284Z,94.00
2019-05-05T01:24:07.396Z,94.30
2019-05-05T01:26:35.381Z,94.30
2019-05-05T01:29:05.301Z,94.40
2019-05-05T01:31:31.747Z,94.50
2019-05-05T01:33:59.865Z,94.50
2019-05-05T01:36:25.985Z,94.60
2019-05-05T01:38:56.788Z,94.60
2019-05-05T01:41:25.848Z,94.60
2019-05-05T01:43:54.094Z,94.70
2019-05-05T01:46:19.991Z,94.70
2019-05-05T01:48:46.082Z,94.70
2019-05-05T01:51:14.221Z,94.70
2019-05-05T01:53:40.323Z,94.60
2019-05-05T01:56:07.243Z,94.40
2019-05-05T01:58:34.891Z,94.40
2019-05-05T02:01:05.016Z,94.30
2019-05-05T02:03:31.288Z,94.20
2019-05-05T02:05:57.460Z,94.30
2019-05-05T02:08:24.444Z,94.90
2019-05-05T02:10:50.896Z,95.40
2019-05-05T02:13:17.053Z,95.90
2019-05-05T02:15:44.572Z,96.30
2019-05-05T02:18:10.874Z,96.90
2019-05-05T02:20:49.793Z,97.10
2019-05-05T02:23:16.940Z,97.30
2019-05-05T02:25:44.775Z,97.50
2019-05-05T02:28:11.216Z,97.70
2019-05-05T02:30:41.743Z,97.90
2019-05-05T02:33:09.735Z,97.80
2019-05-05T02:35:36.060Z,97.80
2019-05-05T02:38:02.176Z,97.90
2019-05-05T02:40:28.700Z,98.00
2019-05-05T02:42:55.788Z,98.10
2019-05-05T02:45:44.171Z,98.20
2019-05-05T02:48:15.262Z,98.10
2019-05-05T02:51:02.773Z,98.10
2019-05-05T02:53:33.925Z,98.10
2019-05-05T02:56:04.275Z,98.10
2019-05-05T02:58:31.561Z,98.20
2019-05-05T03:01:01.855Z,98.30
2019-05-05T03:03:29.357Z,98.30
2019-05-05T03:05:55.751Z,98.50
2019-05-05T03:08:24.111Z,98.40
2019-05-05T03:10:53.585Z,98.40
2019-05-05T03:13:20.403Z,98.50
2019-05-05T03:15:56.161Z,98.40
2019-05-05T03:18:24.571Z,98.40
2019-05-05T03:21:01.583Z,98.30
2019-05-05T03:23:19.006Z,98.30
2019-05-05T03:25:45.580Z,98.20
2019-05-05T03:28:13.703Z,98.10
2019-05-05T03:30:40.314Z,98.00
2019-05-05T03:33:06.582Z,98.00
2019-05-05T03:35:34.558Z,98.00
2019-05-05T03:38:00.980Z,98.00
2019-05-05T03:40:29.586Z,97.90
2019-05-05T03:43:04.260Z,97.90
2019-05-05T03:45:35.475Z,97.80
2019-05-05T03:48:01.937Z,97.80
2019-05-05T03:50:28.146Z,97.80
2019-05-05T03:52:54.492Z,97.80
2019-05-05T03:55:21.159Z,98.10
2019-05-05T03:57:47.305Z,97.80
2019-05-05T04:00:17.349Z,98.10
2019-05-05T04:02:45.414Z,97.70
2019-05-05T04:05:16.199Z,97.80
2019-05-05T04:07:44.003Z,97.90
2019-05-05T04:10:10.593Z,97.90
2019-05-05T04:12:36.816Z,97.90
2019-05-05T04:15:04.840Z,97.90
2019-05-05T04:17:33.666Z,97.90
2019-05-05T04:20:03.833Z,97.90
2019-05-05T04:22:31.864Z,97.80
2019-05-05T04:24:58.161Z,97.60
2019-05-05T04:27:24.300Z,97.50
2019-05-05T04:29:50.376Z,97.50
2019-05-05T04:32:16.482Z,97.50
2019-05-05T04:34:43.869Z,97.40
2019-05-05T04:37:10.407Z,97.30
2019-05-05T04:39:36.492Z,97.10
2019-05-05T04:42:04.675Z,96.90
2019-05-05T04:44:30.716Z,96.80
2019-05-05T04:46:58.776Z,96.80
2019-05-05T04:49:27.120Z,96.80
2019-05-05T04:51:57.964Z,96.70
2019-05-05T04:54:33.436Z,96.70
2019-05-05T04:56:59.656Z,96.60
2019-05-05T04:59:25.766Z,96.50
2019-05-05T05:01:54.634Z,96.40
2019-05-05T05:04:25.539Z,96.10
2019-05-05T05:07:04.668Z,96.40
2019-05-05T05:09:31.070Z,96.40
2019-05-05T05:11:57.188Z,96.50
2019-05-05T05:14:24.715Z,96.60
2019-05-05T05:16:54.058Z,96.60
2019-05-05T05:19:20.015Z,96.50
2019-05-05T05:21:58.301Z,96.10
2019-05-05T05:24:14.742Z,95.70
2019-05-05T05:26:41.013Z,95.40
2019-05-05T05:29:07.229Z,95.10
2019-05-05T05:31:33.769Z,94.80
2019-05-05T05:34:00.121Z,94.50
2019-05-05T05:36:26.260Z,93.80
2019-05-05T05:38:54.317Z,93.50
2019-05-05T05:41:39.264Z,92.90
2019-05-05T05:44:07.415Z,92.60
2019-05-05T05:46:35.467Z,92.70
2019-05-05T05:49:21.699Z,92.80
2019-05-05T05:51:47.929Z,92.90
2019-05-05T05:54:14.227Z,93.00
2019-05-05T05:56:40.426Z,93.10
2019-05-05T05:59:06.806Z,93.10
2019-05-05T06:01:34.587Z,93.20
2019-05-05T06:04:04.093Z,93.30
2019-05-05T06:06:30.379Z,93.30
2019-05-05T06:08:56.723Z,93.40
2019-05-05T06:11:23.905Z,93.40
2019-05-05T06:13:50.205Z,93.40
2019-05-05T06:16:16.406Z,93.20
2019-05-05T06:18:43.693Z,93.20
2019-05-05T06:21:10.321Z,92.70
2019-05-05T06:23:36.419Z,92.40
2019-05-05T06:26:06.886Z,92.50
2019-05-05T06:28:30.768Z,92.50
2019-05-05T06:30:57.169Z,92.40
2019-05-05T06:33:24.161Z,92.30
2019-05-05T06:35:50.803Z,92.20
2019-05-05T06:38:16.956Z,92.10
2019-05-05T06:40:54.317Z,92.00
2019-05-05T06:43:25.478Z,91.90
2019-05-05T06:48:34.234Z,91.80
2019-05-05T06:51:00.403Z,91.60
2019-05-05T06:53:26.528Z,91.80
2019-05-05T06:55:54.252Z,91.30
2019-05-05T06:58:20.532Z,91.20
2019-05-05T07:00:46.731Z,91.00
2019-05-05T07:03:13.893Z,90.70
2019-05-05T07:05:40.272Z,90.30
2019-05-05T07:08:06.565Z,90.30
2019-05-05T07:10:33.878Z,89.00
2019-05-05T07:13:00.443Z,87.00
2019-05-05T07:15:26.564Z,85.30
2019-05-05T07:17:53.563Z,85.00
2019-05-05T07:20:19.866Z,85.60
2019-05-05T07:22:58.864Z,87.00
2019-05-05T07:25:14.003Z,87.30
2019-05-05T07:27:40.132Z,86.40
2019-05-05T07:30:07.015Z,85.50
2019-05-05T07:32:33.795Z,85.60
2019-05-05T07:35:03.938Z,85.50
2019-05-05T07:37:29.967Z,83.60
2019-05-05T07:39:56.077Z,80.90
2019-05-05T07:42:24.170Z,79.90
2019-05-05T07:44:50.199Z,78.90
2019-05-05T07:47:16.308Z,77.40
2019-05-05T07:49:44.164Z,75.90
2019-05-05T07:52:10.589Z,74.60
2019-05-05T07:54:36.883Z,74.20
2019-05-05T07:57:04.279Z,75.00
2019-05-05T07:59:30.499Z,76.10
2019-05-05T08:01:56.700Z,75.00
2019-05-05T08:04:24.255Z,73.90
2019-05-05T08:06:50.644Z,72.70
2019-05-05T08:09:16.825Z,72.00
2019-05-05T08:11:43.530Z,72.90
2019-05-05T08:14:10.052Z,69.80
2019-05-05T08:16:38.119Z,71.70
2019-05-05T08:19:24.190Z,71.40
2019-05-05T08:21:50.516Z,71.80
2019-05-05T08:24:18.547Z,72.90
2019-05-05T08:26:46.632Z,74.10
2019-05-05T08:29:30.332Z,74.90
2019-05-05T08:31:58.368Z,74.40
2019-05-05T08:34:24.556Z,75.90
2019-05-05T08:36:50.778Z,77.10
2019-05-05T08:39:16.903Z,76.80
2019-05-05T08:41:45.383Z,75.30
2019-05-05T08:44:11.069Z,72.80
2019-05-05T08:46:37.327Z,71.70
2019-05-05T08:49:04.411Z,71.30
2019-05-05T08:51:31.203Z,72.10
2019-05-05T08:53:57.401Z,72.10
2019-05-05T08:56:23.818Z,71.00
2019-05-05T08:58:50.318Z,70.90
2019-05-05T09:01:16.423Z,70.60
2019-05-05T09:03:44.260Z,71.20
2019-05-05T09:06:10.523Z,68.60
2019-05-05T09:08:36.833Z,68.10
2019-05-05T09:11:04.744Z,66.60
2019-05-05T09:13:30.961Z,65.80
2019-05-05T09:15:57.176Z,65.00
2019-05-05T09:18:24.589Z,65.00
2019-05-05T09:20:50.865Z,66.60
2019-05-05T09:23:17.066Z,71.80
2019-05-05T09:25:45.143Z,75.30
2019-05-05T09:28:14.804Z,77.70
2019-05-05T09:30:45.689Z,80.10
2019-05-05T09:33:14.011Z,82.10
2019-05-05T09:35:39.779Z,82.70
2019-05-05T09:38:05.858Z,82.80
2019-05-05T09:40:37.366Z,82.70
2019-05-05T09:43:05.042Z,81.30
2019-05-05T09:45:31.230Z,80.10
2019-05-05T09:47:57.311Z,79.50
2019-05-05T09:50:23.774Z,77.80
2019-05-05T09:52:49.894Z,76.10
2019-05-05T09:55:16.001Z,74.90
2019-05-05T09:57:43.823Z,72.60
2019-05-05T10:00:13.852Z,71.40
2019-05-05T10:02:39.707Z,68.80
2019-05-05T10:05:06.619Z,67.90
2019-05-05T10:07:34.565Z,67.80
2019-05-05T10:10:00.801Z,71.10
2019-05-05T10:12:26.883Z,73.50
2019-05-05T10:14:54.185Z,75.00
2019-05-05T10:17:20.489Z,76.80
2019-05-05T10:19:46.580Z,76.30
2019-05-05T10:22:14.598Z,74.20
2019-05-05T10:24:44.316Z,72.60
2019-05-05T10:27:10.549Z,69.90
2019-05-05T10:29:36.995Z,68.50
2019-05-05T10:32:04.589Z,69.60
2019-05-05T10:34:30.931Z,66.20
2019-05-05T10:36:57.076Z,63.20
2019-05-05T10:39:27.890Z,64.50
2019-05-05T10:41:56.145Z,63.90
2019-05-05T10:44:22.356Z,63.70
2019-05-05T10:46:48.541Z,62.60
2019-05-05T10:49:14.639Z,62.40
2019-05-05T10:51:40.756Z,62.10
2019-05-05T10:54:06.953Z,60.60
2019-05-05T10:56:34.542Z,60.50
2019-05-05T10:59:03.938Z,58.70
2019-05-05T11:01:30.314Z,59.10
2019-05-05T11:03:56.487Z,58.70
2019-05-05T11:06:22.818Z,58.70
2019-05-05T11:08:49.099Z,56.50
2019-05-05T11:11:15.809Z,58.30
2019-05-05T11:13:45.519Z,61.40
2019-05-05T11:16:12.045Z,64.80
2019-05-05T11:18:38.223Z,71.40
2019-05-05T11:21:04.549Z,76.30
2019-05-05T11:23:30.988Z,76.70
2019-05-05T11:25:57.166Z,78.70
2019-05-05T11:28:23.396Z,80.20
2019-05-05T11:30:49.752Z,82.20
2019-05-05T11:33:27.169Z,82.10
2019-05-05T11:35:55.197Z,81.50
2019-05-05T11:38:21.649Z,81.30
2019-05-05T11:40:51.294Z,80.60
2019-05-05T11:43:17.535Z,80.20
2019-05-05T11:45:43.911Z,81.00
2019-05-05T11:48:10.327Z,81.10
2019-05-05T11:50:36.420Z,81.80
2019-05-05T11:53:03.901Z,82.00
2019-05-05T11:55:30.197Z,80.90
2019-05-05T11:57:57.726Z,80.70
2019-05-05T12:00:24.320Z,79.30
2019-05-05T12:02:50.488Z,77.40
2019-05-05T12:05:16.621Z,77.30
2019-05-05T12:07:43.637Z,76.10
2019-05-05T12:10:15.491Z,75.70
2019-05-05T12:12:41.604Z,76.10
2019-05-05T12:15:08.330Z,73.10
2019-05-05T12:17:34.829Z,71.90
2019-05-05T12:20:04.729Z,66.70
2019-05-05T12:22:31.038Z,65.60
2019-05-05T12:24:57.177Z,59.00
2019-05-05T12:27:28.071Z,60.10
2019-05-05T12:29:54.645Z,59.90
2019-05-05T12:32:20.872Z,60.60
2019-05-05T12:34:47.080Z,58.90
2019-05-05T12:37:14.249Z,57.00
2019-05-05T12:39:40.555Z,50.70
2019-05-05T12:42:06.870Z,50.20
2019-05-05T12:44:34.953Z,50.10
2019-05-05T12:47:14.322Z,49.80
2019-05-05T12:49:39.995Z,48.60
2019-05-05T12:52:06.073Z,50.30
2019-05-05T12:54:33.586Z,49.20
2019-05-05T12:56:59.973Z,49.70
2019-05-05T12:59:26.363Z,48.60
2019-05-05T13:01:54.542Z,47.90
2019-05-05T13:04:20.483Z,46.40
2019-05-05T13:06:46.771Z,46.40
2019-05-05T13:09:14.157Z,48.00
2019-05-05T13:11:40.240Z,48.00
2019-05-05T13:14:06.320Z,47.80
2019-05-05T13:16:32.610Z,48.90
2019-05-05T13:18:59.171Z,48.80
2019-05-05T13:21:34.703Z,49.40
2019-05-05T13:24:19.544Z,50.70
2019-05-05T13:26:54.056Z,51.60
2019-05-05T13:29:20.342Z,52.10
2019-05-05T13:31:46.534Z,52.60
2019-05-05T13:34:13.634Z,52.50
2019-05-05T13:36:40.195Z,51.80
2019-05-05T13:39:07.077Z,51.70
2019-05-05T13:41:34.010Z,50.70
2019-05-05T13:44:04.370Z,48.90
2019-05-05T13:46:33.886Z,48.80
2019-05-05T13:49:17.288Z,50.80
2019-05-05T13:51:44.786Z,55.80
2019-05-05T13:54:11.012Z,59.40
2019-05-05T13:56:37.106Z,67.20
2019-05-05T13:59:03.389Z,71.80
2019-05-05T14:01:29.497Z,74.80
2019-05-05T14:03:57.662Z,78.60
2019-05-05T14:06:24.231Z,81.10
2019-05-05T14:08:50.515Z,82.70
2019-05-05T14:11:16.727Z,83.40
2019-05-05T14:13:45.546Z,83.90
2019-05-05T14:16:10.846Z,84.20
2019-05-05T14:18:36.958Z,84.50
2019-05-05T14:21:03.250Z,83.90
2019-05-05T14:23:31.339Z,83.40
2019-05-05T14:25:57.584Z,82.80
2019-05-05T14:28:23.698Z,80.00
2019-05-05T14:30:51.798Z,79.60
2019-05-05T14:33:23.671Z,76.50
2019-05-05T14:35:54.544Z,68.50
2019-05-05T14:38:23.600Z,67.00
2019-05-05T14:40:49.810Z,69.00
2019-05-05T14:43:16.905Z,69.30
2019-05-05T14:45:44.388Z,69.50
2019-05-05T14:48:10.720Z,72.60
2019-05-05T14:50:36.919Z,73.80
2019-05-05T14:53:04.070Z,74.20
2019-05-05T14:55:30.558Z,74.70
2019-05-05T14:57:56.754Z,73.00
2019-05-05T15:00:24.749Z,70.50
2019-05-05T15:02:50.838Z,71.80
2019-05-05T15:05:24.553Z,72.50
2019-05-05T15:08:04.908Z,73.40
2019-05-05T15:10:50.863Z,74.60
2019-05-05T15:13:18.257Z,74.70
2019-05-05T15:15:44.564Z,73.30
2019-05-05T15:18:10.746Z,73.30
2019-05-05T15:20:36.946Z,71.60
2019-05-05T15:23:04.732Z,71.20
2019-05-05T15:25:31.175Z,71.50
2019-05-05T15:27:57.352Z,67.80
2019-05-05T15:30:26.847Z,65.50
2019-05-05T15:32:51.455Z,62.00
2019-05-05T15:35:17.673Z,62.80
2019-05-05T15:37:43.786Z,64.00
2019-05-05T15:40:10.892Z,67.60
2019-05-05T15:42:37.120Z,72.10
2019-05-05T15:45:04.241Z,75.60
2019-05-05T15:47:30.406Z,78.60
2019-05-05T15:49:56.576Z,81.10
2019-05-05T15:52:24.325Z,81.00
2019-05-05T15:54:50.706Z,81.00
2019-05-05T15:57:18.238Z,81.90
2019-05-05T15:59:44.740Z,81.30
2019-05-05T16:02:10.912Z,80.70
2019-05-05T16:04:37.049Z,76.90
2019-05-05T16:07:04.599Z,72.20
2019-05-05T16:09:30.986Z,70.00
2019-05-05T16:11:57.211Z,68.30
2019-05-05T16:14:23.921Z,66.10
2019-05-05T16:16:56.092Z,65.10
2019-05-05T16:19:24.797Z,62.80
2019-05-05T16:21:54.500Z,59.30
2019-05-05T16:24:28.228Z,57.70
2019-05-05T16:26:55.607Z,56.60
2019-05-05T16:29:23.656Z,58.20
2019-05-05T16:31:49.845Z,57.80
2019-05-05T16:34:16.044Z,57.70
2019-05-05T16:36:43.952Z,57.10
2019-05-05T16:39:10.256Z,55.60
2019-05-05T16:41:36.391Z,54.90
2019-05-05T16:44:03.471Z,56.50
2019-05-05T16:46:29.584Z,57.00
2019-05-05T16:48:55.704Z,58.00
2019-05-05T16:51:23.795Z,60.90
2019-05-05T16:53:49.952Z,63.90
2019-05-05T16:56:16.638Z,65.50
2019-05-05T16:58:44.878Z,66.00
2019-05-05T17:01:14.354Z,67.20
2019-05-05T17:03:40.824Z,67.70
2019-05-05T17:06:06.928Z,66.70
2019-05-05T17:08:33.748Z,66.70
2019-05-05T17:11:00.038Z,65.50
2019-05-05T17:13:31.086Z,65.00
2019-05-05T17:16:14.746Z,64.50
2019-05-05T17:18:44.805Z,64.90
2019-05-05T17:21:15.742Z,64.40
2019-05-05T17:23:43.473Z,64.40
2019-05-05T17:26:09.991Z,60.00
2019-05-05T17:28:36.198Z,59.20
2019-05-05T17:31:02.306Z,58.50
2019-05-05T17:33:28.458Z,56.10
2019-05-05T17:35:54.584Z,62.40
2019-05-05T17:38:20.762Z,66.80
2019-05-05T17:40:48.885Z,69.50
2019-05-05T17:43:35.661Z,71.60
2019-05-05T17:46:06.736Z,72.80
2019-05-05T17:48:37.632Z,74.40
2019-05-05T17:51:05.731Z,75.70
2019-05-05T17:53:36.654Z,77.80
2019-05-05T17:56:05.210Z,78.10
2019-05-05T17:58:34.281Z,80.50
2019-05-05T18:01:01.292Z,83.70
2019-05-05T18:03:27.964Z,86.70
2019-05-05T18:06:14.330Z,89.10
2019-05-05T18:08:45.666Z,89.70
2019-05-05T18:11:22.691Z,91.30
2019-05-05T18:14:04.041Z,91.40
2019-05-05T18:16:33.902Z,92.30
2019-05-05T18:19:00.241Z,92.70
2019-05-05T18:21:30.401Z,93.10
2019-05-05T18:23:54.749Z,92.70
2019-05-05T18:26:21.019Z,93.10
2019-05-05T18:28:48.224Z,93.00
2019-05-05T18:31:14.799Z,93.20
2019-05-05T18:33:41.439Z,92.50
2019-05-05T18:36:07.533Z,92.10
2019-05-05T18:38:33.774Z,91.80
2019-05-05T18:41:03.612Z,91.30
2019-05-05T18:43:37.815Z,90.80
2019-05-05T18:46:04.935Z,91.20
2019-05-05T18:48:31.305Z,91.70
2019-05-05T18:50:57.605Z,92.00
2019-05-05T18:53:23.783Z,92.30
2019-05-05T18:55:50.063Z,92.10
2019-05-05T18:58:26.980Z,92.20
2019-05-05T19:00:46.146Z,92.10
2019-05-05T19:03:18.521Z,91.90
2019-05-05T19:05:44.188Z,91.80
2019-05-05T19:08:14.198Z,91.70
2019-05-05T19:10:40.298Z,91.70
2019-05-05T19:13:06.496Z,91.50
2019-05-05T19:15:34.936Z,91.50
2019-05-05T19:18:01.348Z,91.80
2019-05-05T19:20:35.259Z,91.40
2019-05-05T19:23:05.264Z,91.40
2019-05-05T19:25:30.739Z,91.50
2019-05-05T19:27:57.042Z,91.40
2019-05-05T19:30:25.446Z,91.40
2019-05-05T19:32:51.261Z,91.40
2019-05-05T19:35:17.385Z,91.50
2019-05-05T19:37:44.532Z,91.60
2019-05-05T19:40:11.168Z,91.60
2019-05-05T19:42:37.470Z,92.10
2019-05-05T19:45:05.783Z,91.80
2019-05-05T19:47:33.598Z,92.10
2019-05-05T19:50:01.835Z,92.10
2019-05-05T19:52:27.935Z,92.00
2019-05-05T19:54:54.717Z,92.00
2019-05-05T19:57:21.079Z,92.00
2019-05-05T19:59:47.211Z,92.00
2019-05-05T20:02:13.429Z,92.20
2019-05-05T20:04:39.631Z,92.30
2019-05-05T20:07:05.731Z,92.10
2019-05-05T20:09:33.905Z,92.00
2019-05-05T20:11:59.952Z,91.80
2019-05-05T20:14:27.028Z,91.50
2019-05-05T20:17:01.251Z,91.20
2019-05-05T20:19:29.466Z,91.20
2019-05-05T20:21:55.704Z,91.20
2019-05-05T20:24:23.914Z,90.50
2019-05-05T20:26:49.905Z,90.10
2019-05-05T20:29:17.130Z,90.00
2019-05-05T20:31:43.562Z,89.50
2019-05-05T20:34:20.880Z,90.10
2019-05-05T20:37:07.076Z,89.90
2019-05-05T20:39:33.181Z,90.10
2019-05-05T20:41:59.741Z,90.10
2019-05-05T20:44:25.875Z,90.10
2019-05-05T20:46:53.541Z,90.10
2019-05-05T20:49:19.964Z,90.30
2019-05-05T20:51:46.176Z,90.40
2019-05-05T20:54:14.181Z,90.30
2019-05-05T20:56:40.288Z,90.30
2019-05-05T20:59:06.521Z,90.30
2019-05-05T21:01:34.085Z,90.30
2019-05-05T21:04:00.356Z,90.10
2019-05-05T21:06:26.472Z,90.10
2019-05-05T21:08:52.661Z,90.10
2019-05-05T21:11:18.858Z,90.10
2019-05-05T21:13:45.318Z,90.10
2019-05-05T21:16:13.979Z,90.10
2019-05-05T21:18:39.674Z,90.00
2019-05-05T21:21:07.645Z,89.50
2019-05-05T21:23:38.180Z,90.10
2019-05-05T21:26:06.367Z,90.10
2019-05-05T21:28:33.627Z,90.10
2019-05-05T21:31:00.109Z,90.20
2019-05-05T21:33:26.294Z,90.20
2019-05-05T21:35:54.822Z,90.20
2019-05-05T21:38:20.503Z,90.20
2019-05-05T21:40:46.695Z,90.30
2019-05-05T21:43:15.198Z,90.40
2019-05-05T21:45:40.815Z,90.50
2019-05-05T21:48:06.917Z,90.40
2019-05-05T21:50:34.915Z,90.20
2019-05-05T21:53:05.790Z,90.10
2019-05-05T21:55:46.166Z,90.00
2019-05-05T21:58:14.239Z,89.90
2019-05-05T22:00:51.314Z,90.00
2019-05-05T22:03:34.724Z,90.00
2019-05-05T22:06:03.540Z,89.90
2019-05-05T22:08:29.551Z,89.80
2019-05-05T22:10:55.656Z,89.70
2019-05-05T22:13:21.857Z,90.00
2019-05-05T22:15:48.055Z,90.20
2019-05-05T22:18:14.509Z,90.30
2019-05-05T22:20:45.609Z,90.20
2019-05-05T22:23:14.740Z,90.20
2019-05-05T22:25:40.931Z,90.20
2019-05-05T22:28:07.051Z,90.30
2019-05-05T22:30:34.955Z,90.40
2019-05-05T22:33:05.729Z,90.40
2019-05-05T22:35:30.635Z,90.60
2019-05-05T22:37:56.713Z,90.80
2019-05-05T22:40:24.442Z,90.80
2019-05-05T22:42:50.852Z,90.80
2019-05-05T22:45:17.496Z,90.90
2019-05-05T22:47:43.872Z,90.90
2019-05-05T22:50:10.790Z,90.90
2019-05-05T22:52:56.979Z,91.00
2019-05-05T22:55:24.752Z,90.90
2019-05-05T22:57:51.009Z,90.90
2019-05-05T23:00:28.411Z,90.80
2019-05-05T23:02:51.412Z,90.90
2019-05-05T23:05:19.580Z,90.90
2019-05-05T23:07:45.744Z,90.90
2019-05-05T23:10:14.001Z,91.00
2019-05-05T23:12:40.067Z,91.00
2019-05-05T23:15:07.120Z,90.90
2019-05-05T23:17:38.058Z,90.80
2019-05-05T23:20:19.547Z,90.90
2019-05-05T23:22:50.033Z,91.00
2019-05-05T23:25:33.191Z,91.00
2019-05-05T23:27:59.311Z,91.10
2019-05-05T23:30:38.563Z,91.10
2019-05-05T23:32:55.667Z,91.30
2019-05-05T23:35:23.782Z,91.30
2019-05-05T23:37:49.753Z,91.50
2019-05-05T23:40:20.895Z,91.60
2019-05-05T23:42:47.007Z,91.60
2019-05-05T23:45:13.831Z,91.60
2019-05-05T23:47:40.028Z,91.60
2019-05-05T23:50:06.225Z,91.60
2019-05-05T23:52:32.299Z,91.90
2019-05-05T23:54:58.522Z,92.20
2019-05-05T23:57:24.719Z,92.60
2019-05-05T23:59:50.802Z,92.80
